ヤクーツク の空港の天気 - METARとTAF

ヤクーツク空港 ( UEEE / YKS ) - ロシア ヤクーツク
飛行場実況気象(Metar)
観測時間04/26 01:00 +09 (04/25 16:00 UTC)
風向・風速北 2m/s
視程10km以上
天気現象
全天の4割程度の雲 雲底高度 1220m
気温1℃
湿度69%
気圧1015hPa
METARUEEE 251600Z 36002MPS 9999 SCT040 01/M04 Q1015 R23L/09//60 NOSIG RMK QFE753
過去の天気等 Google飛行場航空写真 Wunderground天気予報

過去48時間のMETAR

飛行場予報(TAF)
発表時間: 4/25 23:00 +09 (4/25 14:00 UTC)
予報対象時間: 26日0時 +09 ~ 27日6時 +09
風向・風速西北西 3m/s
視程10km以上
全天の4割程度の積乱雲 雲底高度 910m
全天を覆う雲 雲底高度 3,050m
26日0時 +09 ~ 26日9時 +09 に一時的に
視程300m
天気現象氷霧
全天を覆う雲 鉛直視程 90m
TAF UEEE 251400Z 2515/2621 29003MPS 9999 SCT030CB OVC100
TEMPO 2515/2524 0300 FZFG VV003